sensor_id;sensor_type;location;lat;lon;timestamp;P1;durP1;ratioP1;P2;durP2;ratioP2
27505;SDS011;14939;43.596;1.320;2022-10-16T00:01:23;14.45;;;10.98;;
27505;SDS011;14939;43.596;1.320;2022-10-16T00:03:50;16.98;;;12.15;;
27505;SDS011;14939;43.596;1.320;2022-10-16T00:06:17;15.77;;;11.25;;
27505;SDS011;14939;43.596;1.320;2022-10-16T00:08:44;14.45;;;11.55;;
27505;SDS011;14939;43.596;1.320;2022-10-16T00:11:11;18.00;;;12.02;;
27505;SDS011;14939;43.596;1.320;2022-10-16T00:13:40;17.50;;;11.70;;
27505;SDS011;14939;43.596;1.320;2022-10-16T00:16:07;14.63;;;11.30;;
27505;SDS011;14939;43.596;1.320;2022-10-16T00:18:33;15.85;;;11.27;;
27505;SDS011;14939;43.596;1.320;2022-10-16T00:21:03;13.02;;;11.45;;
27505;SDS011;14939;43.596;1.320;2022-10-16T00:23:31;15.55;;;11.55;;
27505;SDS011;14939;43.596;1.320;2022-10-16T00:25:58;14.13;;;11.80;;
27505;SDS011;14939;43.596;1.320;2022-10-16T00:28:25;15.82;;;11.32;;
27505;SDS011;14939;43.596;1.320;2022-10-16T00:30:51;14.35;;;11.50;;
27505;SDS011;14939;43.596;1.320;2022-10-16T00:33:17;17.83;;;11.95;;
27505;SDS011;14939;43.596;1.320;2022-10-16T00:35:42;15.13;;;11.85;;
27505;SDS011;14939;43.596;1.320;2022-10-16T00:38:08;15.55;;;11.82;;
27505;SDS011;14939;43.596;1.320;2022-10-16T00:40:34;16.73;;;12.55;;
27505;SDS011;14939;43.596;1.320;2022-10-16T00:43:00;13.90;;;11.88;;
27505;SDS011;14939;43.596;1.320;2022-10-16T00:45:26;15.25;;;12.25;;
27505;SDS011;14939;43.596;1.320;2022-10-16T00:47:52;15.02;;;11.40;;
27505;SDS011;14939;43.596;1.320;2022-10-16T00:52:54;18.65;;;12.38;;
27505;SDS011;14939;43.596;1.320;2022-10-16T00:55:21;17.48;;;11.65;;
27505;SDS011;14939;43.596;1.320;2022-10-16T00:57:48;15.43;;;11.57;;
27505;SDS011;14939;43.596;1.320;2022-10-16T01:00:19;14.82;;;11.95;;
27505;SDS011;14939;43.596;1.320;2022-10-16T01:02:57;16.42;;;11.98;;
27505;SDS011;14939;43.596;1.320;2022-10-16T01:05:48;18.75;;;11.57;;
27505;SDS011;14939;43.596;1.320;2022-10-16T01:08:21;14.60;;;11.55;;
27505;SDS011;14939;43.596;1.320;2022-10-16T01:11:38;17.13;;;12.50;;
27505;SDS011;14939;43.596;1.320;2022-10-16T01:13:49;16.47;;;10.87;;
27505;SDS011;14939;43.596;1.320;2022-10-16T01:22:08;15.77;;;11.50;;
27505;SDS011;14939;43.596;1.320;2022-10-16T01:24:42;17.13;;;11.63;;
27505;SDS011;14939;43.596;1.320;2022-10-16T01:29:56;16.15;;;11.43;;
27505;SDS011;14939;43.596;1.320;2022-10-16T01:35:52;13.68;;;11.25;;
27505;SDS011;14939;43.596;1.320;2022-10-16T01:38:25;14.68;;;11.75;;
27505;SDS011;14939;43.596;1.320;2022-10-16T01:40:58;13.75;;;11.15;;
27505;SDS011;14939;43.596;1.320;2022-10-16T01:43:42;14.63;;;11.63;;
27505;SDS011;14939;43.596;1.320;2022-10-16T01:46:11;15.85;;;11.35;;
27505;SDS011;14939;43.596;1.320;2022-10-16T01:48:39;17.35;;;11.27;;
27505;SDS011;14939;43.596;1.320;2022-10-16T01:51:06;14.68;;;11.77;;
27505;SDS011;14939;43.596;1.320;2022-10-16T01:53:35;14.45;;;12.10;;
27505;SDS011;14939;43.596;1.320;2022-10-16T01:56:02;18.17;;;12.80;;
27505;SDS011;14939;43.596;1.320;2022-10-16T01:58:33;15.82;;;11.88;;
27505;SDS011;14939;43.596;1.320;2022-10-16T02:01:02;16.27;;;12.20;;
27505;SDS011;14939;43.596;1.320;2022-10-16T02:03:29;20.08;;;12.27;;
27505;SDS011;14939;43.596;1.320;2022-10-16T02:05:56;20.45;;;13.68;;
27505;SDS011;14939;43.596;1.320;2022-10-16T02:08:24;20.23;;;13.73;;
27505;SDS011;14939;43.596;1.320;2022-10-16T02:10:53;19.38;;;13.52;;
27505;SDS011;14939;43.596;1.320;2022-10-16T02:15:54;22.15;;;14.07;;
27505;SDS011;14939;43.596;1.320;2022-10-16T02:18:20;19.17;;;13.32;;
27505;SDS011;14939;43.596;1.320;2022-10-16T02:20:55;23.05;;;14.50;;
27505;SDS011;14939;43.596;1.320;2022-10-16T02:26:04;22.73;;;14.07;;
27505;SDS011;14939;43.596;1.320;2022-10-16T02:28:40;20.63;;;15.68;;
27505;SDS011;14939;43.596;1.320;2022-10-16T02:31:11;21.42;;;14.93;;
27505;SDS011;14939;43.596;1.320;2022-10-16T02:33:41;23.92;;;16.17;;
27505;SDS011;14939;43.596;1.320;2022-10-16T02:36:08;21.27;;;15.45;;
27505;SDS011;14939;43.596;1.320;2022-10-16T02:38:35;24.40;;;15.82;;
27505;SDS011;14939;43.596;1.320;2022-10-16T02:41:01;25.50;;;17.52;;
27505;SDS011;14939;43.596;1.320;2022-10-16T02:43:28;23.42;;;16.75;;
27505;SDS011;14939;43.596;1.320;2022-10-16T02:45:54;23.40;;;17.05;;
27505;SDS011;14939;43.596;1.320;2022-10-16T02:48:20;24.15;;;18.02;;
27505;SDS011;14939;43.596;1.320;2022-10-16T02:50:46;26.40;;;18.67;;
27505;SDS011;14939;43.596;1.320;2022-10-16T02:53:12;24.33;;;17.63;;
27505;SDS011;14939;43.596;1.320;2022-10-16T02:55:37;25.05;;;17.70;;
27505;SDS011;14939;43.596;1.320;2022-10-16T02:58:03;30.00;;;19.20;;
27505;SDS011;14939;43.596;1.320;2022-10-16T03:00:28;28.15;;;18.80;;
27505;SDS011;14939;43.596;1.320;2022-10-16T03:02:54;27.77;;;19.10;;
27505;SDS011;14939;43.596;1.320;2022-10-16T03:05:20;25.00;;;18.45;;
27505;SDS011;14939;43.596;1.320;2022-10-16T03:07:45;26.08;;;18.75;;
27505;SDS011;14939;43.596;1.320;2022-10-16T03:10:11;26.08;;;18.63;;
27505;SDS011;14939;43.596;1.320;2022-10-16T03:12:37;25.75;;;19.42;;
27505;SDS011;14939;43.596;1.320;2022-10-16T03:15:03;30.92;;;19.80;;
27505;SDS011;14939;43.596;1.320;2022-10-16T03:17:29;33.88;;;20.50;;
27505;SDS011;14939;43.596;1.320;2022-10-16T03:19:54;30.88;;;20.20;;
27505;SDS011;14939;43.596;1.320;2022-10-16T03:22:20;27.17;;;19.73;;
27505;SDS011;14939;43.596;1.320;2022-10-16T03:24:46;28.65;;;20.55;;
27505;SDS011;14939;43.596;1.320;2022-10-16T03:27:11;32.92;;;20.55;;
27505;SDS011;14939;43.596;1.320;2022-10-16T03:29:37;35.38;;;21.48;;
27505;SDS011;14939;43.596;1.320;2022-10-16T03:32:02;33.65;;;20.65;;
27505;SDS011;14939;43.596;1.320;2022-10-16T03:34:28;30.70;;;20.63;;
27505;SDS011;14939;43.596;1.320;2022-10-16T03:36:54;35.47;;;21.38;;
27505;SDS011;14939;43.596;1.320;2022-10-16T03:39:20;29.02;;;20.65;;
27505;SDS011;14939;43.596;1.320;2022-10-16T03:41:45;31.33;;;21.15;;
27505;SDS011;14939;43.596;1.320;2022-10-16T03:44:11;32.08;;;20.65;;
27505;SDS011;14939;43.596;1.320;2022-10-16T03:46:37;30.95;;;20.98;;
27505;SDS011;14939;43.596;1.320;2022-10-16T03:49:03;28.92;;;20.35;;
27505;SDS011;14939;43.596;1.320;2022-10-16T03:51:29;27.08;;;20.20;;
27505;SDS011;14939;43.596;1.320;2022-10-16T03:53:55;26.52;;;18.85;;
27505;SDS011;14939;43.596;1.320;2022-10-16T03:56:20;26.77;;;19.85;;
27505;SDS011;14939;43.596;1.320;2022-10-16T03:58:46;33.65;;;20.48;;
27505;SDS011;14939;43.596;1.320;2022-10-16T04:01:12;29.42;;;19.55;;
27505;SDS011;14939;43.596;1.320;2022-10-16T04:03:37;25.45;;;18.70;;
27505;SDS011;14939;43.596;1.320;2022-10-16T04:06:03;26.15;;;19.10;;
27505;SDS011;14939;43.596;1.320;2022-10-16T04:08:29;29.55;;;18.70;;
27505;SDS011;14939;43.596;1.320;2022-10-16T04:10:54;31.45;;;19.33;;
27505;SDS011;14939;43.596;1.320;2022-10-16T04:13:20;25.95;;;18.50;;
27505;SDS011;14939;43.596;1.320;2022-10-16T04:15:46;26.10;;;18.98;;
27505;SDS011;14939;43.596;1.320;2022-10-16T04:18:11;24.95;;;18.73;;
27505;SDS011;14939;43.596;1.320;2022-10-16T04:20:37;30.23;;;18.15;;
27505;SDS011;14939;43.596;1.320;2022-10-16T04:23:03;27.45;;;18.33;;
27505;SDS011;14939;43.596;1.320;2022-10-16T04:25:29;25.15;;;18.77;;
27505;SDS011;14939;43.596;1.320;2022-10-16T04:27:55;24.98;;;17.40;;
27505;SDS011;14939;43.596;1.320;2022-10-16T04:30:21;31.40;;;18.33;;
27505;SDS011;14939;43.596;1.320;2022-10-16T04:32:48;28.05;;;18.38;;
27505;SDS011;14939;43.596;1.320;2022-10-16T04:35:15;26.73;;;17.88;;
27505;SDS011;14939;43.596;1.320;2022-10-16T04:37:41;23.80;;;17.30;;
27505;SDS011;14939;43.596;1.320;2022-10-16T04:40:07;26.00;;;18.10;;
27505;SDS011;14939;43.596;1.320;2022-10-16T04:42:33;29.33;;;18.10;;
27505;SDS011;14939;43.596;1.320;2022-10-16T04:44:58;25.90;;;18.13;;
27505;SDS011;14939;43.596;1.320;2022-10-16T04:47:24;28.75;;;18.42;;
27505;SDS011;14939;43.596;1.320;2022-10-16T04:49:50;24.85;;;18.17;;
27505;SDS011;14939;43.596;1.320;2022-10-16T04:52:15;26.95;;;18.38;;
27505;SDS011;14939;43.596;1.320;2022-10-16T04:54:42;28.52;;;17.65;;
27505;SDS011;14939;43.596;1.320;2022-10-16T04:57:10;24.70;;;17.52;;
27505;SDS011;14939;43.596;1.320;2022-10-16T04:59:35;23.75;;;16.70;;
27505;SDS011;14939;43.596;1.320;2022-10-16T05:02:01;26.58;;;17.50;;
27505;SDS011;14939;43.596;1.320;2022-10-16T05:04:27;22.90;;;16.33;;
27505;SDS011;14939;43.596;1.320;2022-10-16T05:06:53;24.38;;;16.52;;
27505;SDS011;14939;43.596;1.320;2022-10-16T05:09:19;23.35;;;16.77;;
27505;SDS011;14939;43.596;1.320;2022-10-16T05:11:45;26.98;;;16.88;;
27505;SDS011;14939;43.596;1.320;2022-10-16T05:14:11;24.85;;;16.98;;
27505;SDS011;14939;43.596;1.320;2022-10-16T05:16:36;28.38;;;17.40;;
27505;SDS011;14939;43.596;1.320;2022-10-16T05:19:02;24.73;;;17.35;;
27505;SDS011;14939;43.596;1.320;2022-10-16T05:21:28;26.73;;;17.58;;
27505;SDS011;14939;43.596;1.320;2022-10-16T05:23:53;26.85;;;17.73;;
27505;SDS011;14939;43.596;1.320;2022-10-16T05:26:20;27.50;;;17.10;;
27505;SDS011;14939;43.596;1.320;2022-10-16T05:28:45;27.02;;;17.65;;
27505;SDS011;14939;43.596;1.320;2022-10-16T05:31:11;27.35;;;17.67;;
27505;SDS011;14939;43.596;1.320;2022-10-16T05:33:37;25.00;;;18.05;;
27505;SDS011;14939;43.596;1.320;2022-10-16T05:36:03;25.83;;;16.60;;
27505;SDS011;14939;43.596;1.320;2022-10-16T05:38:31;24.40;;;16.90;;
27505;SDS011;14939;43.596;1.320;2022-10-16T05:40:56;23.90;;;17.13;;
27505;SDS011;14939;43.596;1.320;2022-10-16T05:43:22;29.73;;;17.20;;
27505;SDS011;14939;43.596;1.320;2022-10-16T05:45:58;24.55;;;17.17;;
27505;SDS011;14939;43.596;1.320;2022-10-16T05:48:29;26.52;;;17.02;;
27505;SDS011;14939;43.596;1.320;2022-10-16T05:51:05;23.77;;;15.68;;
27505;SDS011;14939;43.596;1.320;2022-10-16T05:53:34;25.27;;;17.00;;
27505;SDS011;14939;43.596;1.320;2022-10-16T05:56:01;27.65;;;17.30;;
27505;SDS011;14939;43.596;1.320;2022-10-16T05:58:28;27.40;;;17.17;;
27505;SDS011;14939;43.596;1.320;2022-10-16T06:01:00;27.27;;;18.42;;
27505;SDS011;14939;43.596;1.320;2022-10-16T06:03:32;27.88;;;17.65;;
27505;SDS011;14939;43.596;1.320;2022-10-16T06:05:58;28.75;;;17.30;;
27505;SDS011;14939;43.596;1.320;2022-10-16T06:08:24;28.23;;;17.50;;
27505;SDS011;14939;43.596;1.320;2022-10-16T06:11:03;28.58;;;18.02;;
27505;SDS011;14939;43.596;1.320;2022-10-16T06:13:30;30.70;;;17.80;;
27505;SDS011;14939;43.596;1.320;2022-10-16T06:15:57;31.05;;;17.40;;
27505;SDS011;14939;43.596;1.320;2022-10-16T06:18:24;26.50;;;17.13;;
27505;SDS011;14939;43.596;1.320;2022-10-16T06:20:50;21.65;;;17.42;;
27505;SDS011;14939;43.596;1.320;2022-10-16T06:23:16;22.70;;;17.33;;
27505;SDS011;14939;43.596;1.320;2022-10-16T06:25:41;26.08;;;17.42;;
27505;SDS011;14939;43.596;1.320;2022-10-16T06:28:07;27.23;;;17.40;;
27505;SDS011;14939;43.596;1.320;2022-10-16T06:30:32;24.90;;;17.65;;
27505;SDS011;14939;43.596;1.320;2022-10-16T06:32:58;24.65;;;17.52;;
27505;SDS011;14939;43.596;1.320;2022-10-16T06:35:24;24.15;;;17.40;;
27505;SDS011;14939;43.596;1.320;2022-10-16T06:37:49;26.02;;;17.40;;
27505;SDS011;14939;43.596;1.320;2022-10-16T06:40:17;27.35;;;17.05;;
27505;SDS011;14939;43.596;1.320;2022-10-16T06:42:43;30.73;;;16.58;;
27505;SDS011;14939;43.596;1.320;2022-10-16T06:45:08;24.98;;;17.10;;
27505;SDS011;14939;43.596;1.320;2022-10-16T06:47:34;28.00;;;17.00;;
27505;SDS011;14939;43.596;1.320;2022-10-16T06:50:00;25.70;;;16.55;;
27505;SDS011;14939;43.596;1.320;2022-10-16T06:52:27;25.55;;;17.05;;
27505;SDS011;14939;43.596;1.320;2022-10-16T06:54:53;24.08;;;17.55;;
27505;SDS011;14939;43.596;1.320;2022-10-16T06:57:19;24.00;;;17.30;;
27505;SDS011;14939;43.596;1.320;2022-10-16T06:59:44;25.15;;;17.60;;
27505;SDS011;14939;43.596;1.320;2022-10-16T07:02:10;28.33;;;16.52;;
27505;SDS011;14939;43.596;1.320;2022-10-16T07:04:36;26.70;;;17.00;;
27505;SDS011;14939;43.596;1.320;2022-10-16T07:07:01;23.67;;;16.25;;
27505;SDS011;14939;43.596;1.320;2022-10-16T07:09:27;25.65;;;16.65;;
27505;SDS011;14939;43.596;1.320;2022-10-16T07:11:53;25.77;;;16.65;;
27505;SDS011;14939;43.596;1.320;2022-10-16T07:14:19;24.52;;;15.38;;
27505;SDS011;14939;43.596;1.320;2022-10-16T07:16:46;22.63;;;16.30;;
27505;SDS011;14939;43.596;1.320;2022-10-16T07:19:13;21.55;;;15.73;;
27505;SDS011;14939;43.596;1.320;2022-10-16T07:21:40;24.05;;;16.33;;
27505;SDS011;14939;43.596;1.320;2022-10-16T07:24:10;19.67;;;15.25;;
27505;SDS011;14939;43.596;1.320;2022-10-16T07:26:38;21.33;;;14.57;;
27505;SDS011;14939;43.596;1.320;2022-10-16T07:29:04;23.30;;;15.02;;
27505;SDS011;14939;43.596;1.320;2022-10-16T07:31:32;22.67;;;14.50;;
27505;SDS011;14939;43.596;1.320;2022-10-16T07:33:58;25.80;;;14.75;;
27505;SDS011;14939;43.596;1.320;2022-10-16T07:36:24;24.33;;;14.48;;
27505;SDS011;14939;43.596;1.320;2022-10-16T07:38:50;21.10;;;14.32;;
27505;SDS011;14939;43.596;1.320;2022-10-16T07:41:17;20.95;;;14.35;;
27505;SDS011;14939;43.596;1.320;2022-10-16T07:43:47;21.75;;;14.40;;
27505;SDS011;14939;43.596;1.320;2022-10-16T07:46:14;18.40;;;13.98;;
27505;SDS011;14939;43.596;1.320;2022-10-16T07:48:41;18.25;;;13.07;;
27505;SDS011;14939;43.596;1.320;2022-10-16T07:51:10;17.48;;;12.60;;
27505;SDS011;14939;43.596;1.320;2022-10-16T07:53:37;14.70;;;11.73;;
27505;SDS011;14939;43.596;1.320;2022-10-16T07:56:04;15.20;;;12.68;;
27505;SDS011;14939;43.596;1.320;2022-10-16T07:58:31;20.67;;;12.70;;
27505;SDS011;14939;43.596;1.320;2022-10-16T08:00:57;16.95;;;12.30;;
27505;SDS011;14939;43.596;1.320;2022-10-16T08:03:24;16.00;;;12.27;;
27505;SDS011;14939;43.596;1.320;2022-10-16T08:05:50;22.20;;;11.93;;
27505;SDS011;14939;43.596;1.320;2022-10-16T08:08:16;17.05;;;11.65;;
27505;SDS011;14939;43.596;1.320;2022-10-16T08:10:43;14.93;;;11.40;;
27505;SDS011;14939;43.596;1.320;2022-10-16T08:13:10;14.07;;;11.10;;
27505;SDS011;14939;43.596;1.320;2022-10-16T08:15:35;14.02;;;10.48;;
27505;SDS011;14939;43.596;1.320;2022-10-16T08:18:02;17.38;;;11.35;;
27505;SDS011;14939;43.596;1.320;2022-10-16T08:20:29;13.55;;;10.32;;
27505;SDS011;14939;43.596;1.320;2022-10-16T08:22:56;15.30;;;11.00;;
27505;SDS011;14939;43.596;1.320;2022-10-16T08:25:22;13.55;;;10.50;;
27505;SDS011;14939;43.596;1.320;2022-10-16T08:27:49;16.50;;;10.60;;
27505;SDS011;14939;43.596;1.320;2022-10-16T08:30:16;14.82;;;11.00;;
27505;SDS011;14939;43.596;1.320;2022-10-16T08:32:43;14.38;;;11.00;;
27505;SDS011;14939;43.596;1.320;2022-10-16T08:35:11;14.32;;;10.45;;
27505;SDS011;14939;43.596;1.320;2022-10-16T08:37:38;12.55;;;10.57;;
27505;SDS011;14939;43.596;1.320;2022-10-16T08:40:04;12.85;;;10.65;;
27505;SDS011;14939;43.596;1.320;2022-10-16T08:48:27;14.52;;;10.23;;
27505;SDS011;14939;43.596;1.320;2022-10-16T08:51:08;15.77;;;10.52;;
27505;SDS011;14939;43.596;1.320;2022-10-16T08:56:21;15.07;;;10.35;;
27505;SDS011;14939;43.596;1.320;2022-10-16T08:58:47;17.83;;;11.23;;
27505;SDS011;14939;43.596;1.320;2022-10-16T09:01:15;24.67;;;11.95;;
27505;SDS011;14939;43.596;1.320;2022-10-16T09:06:22;18.83;;;12.20;;
27505;SDS011;14939;43.596;1.320;2022-10-16T09:09:35;14.15;;;11.18;;
27505;SDS011;14939;43.596;1.320;2022-10-16T09:12:09;18.17;;;10.82;;
27505;SDS011;14939;43.596;1.320;2022-10-16T09:20:10;17.10;;;10.60;;
27505;SDS011;14939;43.596;1.320;2022-10-16T09:22:39;15.05;;;10.40;;
27505;SDS011;14939;43.596;1.320;2022-10-16T09:25:18;14.43;;;10.20;;
27505;SDS011;14939;43.596;1.320;2022-10-16T09:27:47;20.13;;;10.40;;
27505;SDS011;14939;43.596;1.320;2022-10-16T09:30:21;17.55;;;10.30;;
27505;SDS011;14939;43.596;1.320;2022-10-16T09:32:48;19.10;;;10.82;;
27505;SDS011;14939;43.596;1.320;2022-10-16T09:35:17;17.50;;;10.40;;
27505;SDS011;14939;43.596;1.320;2022-10-16T09:37:57;14.45;;;9.60;;
27505;SDS011;14939;43.596;1.320;2022-10-16T09:40:26;16.67;;;9.82;;
27505;SDS011;14939;43.596;1.320;2022-10-16T09:48:27;16.40;;;9.52;;
27505;SDS011;14939;43.596;1.320;2022-10-16T09:50:59;18.85;;;9.30;;
27505;SDS011;14939;43.596;1.320;2022-10-16T09:53:41;15.43;;;9.32;;
27505;SDS011;14939;43.596;1.320;2022-10-16T09:56:12;15.13;;;8.77;;
27505;SDS011;14939;43.596;1.320;2022-10-16T09:58:50;14.80;;;8.77;;
27505;SDS011;14939;43.596;1.320;2022-10-16T10:01:17;17.63;;;9.10;;
27505;SDS011;14939;43.596;1.320;2022-10-16T10:03:44;15.00;;;8.90;;
27505;SDS011;14939;43.596;1.320;2022-10-16T10:06:18;14.02;;;8.38;;
27505;SDS011;14939;43.596;1.320;2022-10-16T10:12:18;14.88;;;9.00;;
27505;SDS011;14939;43.596;1.320;2022-10-16T10:14:47;11.98;;;8.63;;
27505;SDS011;14939;43.596;1.320;2022-10-16T10:17:18;13.35;;;7.85;;
27505;SDS011;14939;43.596;1.320;2022-10-16T10:19:50;14.93;;;8.07;;
27505;SDS011;14939;43.596;1.320;2022-10-16T10:30:22;14.25;;;7.20;;
27505;SDS011;14939;43.596;1.320;2022-10-16T10:35:42;16.58;;;7.00;;
27505;SDS011;14939;43.596;1.320;2022-10-16T10:44:06;25.08;;;6.85;;
27505;SDS011;14939;43.596;1.320;2022-10-16T10:49:02;12.18;;;6.75;;
27505;SDS011;14939;43.596;1.320;2022-10-16T10:54:43;12.60;;;6.30;;
27505;SDS011;14939;43.596;1.320;2022-10-16T10:59:51;12.90;;;6.50;;
27505;SDS011;14939;43.596;1.320;2022-10-16T11:07:52;14.38;;;6.18;;
27505;SDS011;14939;43.596;1.320;2022-10-16T11:10:28;14.50;;;6.03;;
27505;SDS011;14939;43.596;1.320;2022-10-16T11:13:26;9.40;;;5.50;;
27505;SDS011;14939;43.596;1.320;2022-10-16T11:16:23;12.90;;;6.35;;
27505;SDS011;14939;43.596;1.320;2022-10-16T11:18:58;15.25;;;6.15;;
27505;SDS011;14939;43.596;1.320;2022-10-16T11:21:29;12.55;;;6.03;;
27505;SDS011;14939;43.596;1.320;2022-10-16T11:27:16;10.02;;;5.75;;
27505;SDS011;14939;43.596;1.320;2022-10-16T11:29:49;11.77;;;6.15;;
27505;SDS011;14939;43.596;1.320;2022-10-16T11:32:23;10.30;;;6.55;;
27505;SDS011;14939;43.596;1.320;2022-10-16T11:34:55;11.53;;;6.20;;
27505;SDS011;14939;43.596;1.320;2022-10-16T11:37:30;13.13;;;5.60;;
27505;SDS011;14939;43.596;1.320;2022-10-16T11:40:21;9.48;;;5.93;;
27505;SDS011;14939;43.596;1.320;2022-10-16T11:42:58;14.90;;;6.07;;
27505;SDS011;14939;43.596;1.320;2022-10-16T11:45:34;11.20;;;6.10;;
27505;SDS011;14939;43.596;1.320;2022-10-16T11:53:53;18.15;;;5.93;;
27505;SDS011;14939;43.596;1.320;2022-10-16T11:56:40;12.70;;;5.47;;
27505;SDS011;14939;43.596;1.320;2022-10-16T11:59:14;27.42;;;5.38;;
27505;SDS011;14939;43.596;1.320;2022-10-16T12:07:02;10.85;;;5.13;;
27505;SDS011;14939;43.596;1.320;2022-10-16T12:09:37;12.32;;;5.20;;
27505;SDS011;14939;43.596;1.320;2022-10-16T12:12:03;8.70;;;5.55;;
27505;SDS011;14939;43.596;1.320;2022-10-16T12:14:34;12.07;;;5.43;;
27505;SDS011;14939;43.596;1.320;2022-10-16T12:17:03;12.20;;;4.95;;
27505;SDS011;14939;43.596;1.320;2022-10-16T12:20:01;11.57;;;5.38;;
27505;SDS011;14939;43.596;1.320;2022-10-16T12:25:30;12.68;;;4.65;;
27505;SDS011;14939;43.596;1.320;2022-10-16T12:28:04;10.13;;;5.00;;
27505;SDS011;14939;43.596;1.320;2022-10-16T12:30:40;14.00;;;4.82;;
27505;SDS011;14939;43.596;1.320;2022-10-16T12:33:21;7.30;;;4.00;;
27505;SDS011;14939;43.596;1.320;2022-10-16T12:35:52;9.48;;;4.10;;
27505;SDS011;14939;43.596;1.320;2022-10-16T12:38:19;8.45;;;4.22;;
27505;SDS011;14939;43.596;1.320;2022-10-16T12:41:07;7.32;;;3.78;;
27505;SDS011;14939;43.596;1.320;2022-10-16T12:43:41;9.10;;;3.90;;
27505;SDS011;14939;43.596;1.320;2022-10-16T12:48:34;10.48;;;4.22;;
27505;SDS011;14939;43.596;1.320;2022-10-16T12:51:11;9.93;;;3.70;;
27505;SDS011;14939;43.596;1.320;2022-10-16T12:53:38;8.20;;;3.70;;
27505;SDS011;14939;43.596;1.320;2022-10-16T12:56:11;9.25;;;3.50;;
27505;SDS011;14939;43.596;1.320;2022-10-16T12:58:52;5.43;;;3.08;;
27505;SDS011;14939;43.596;1.320;2022-10-16T13:01:34;7.32;;;3.20;;
27505;SDS011;14939;43.596;1.320;2022-10-16T13:20:23;7.88;;;2.88;;
27505;SDS011;14939;43.596;1.320;2022-10-16T13:23:45;8.90;;;2.92;;
27505;SDS011;14939;43.596;1.320;2022-10-16T13:28:35;6.47;;;2.70;;
27505;SDS011;14939;43.596;1.320;2022-10-16T13:31:03;13.38;;;3.63;;
27505;SDS011;14939;43.596;1.320;2022-10-16T13:35:56;9.15;;;2.45;;
27505;SDS011;14939;43.596;1.320;2022-10-16T13:38:23;8.55;;;2.70;;
27505;SDS011;14939;43.596;1.320;2022-10-16T13:43:34;10.85;;;2.80;;
27505;SDS011;14939;43.596;1.320;2022-10-16T13:48:29;6.65;;;2.85;;
27505;SDS011;14939;43.596;1.320;2022-10-16T13:50:59;10.80;;;3.05;;
27505;SDS011;14939;43.596;1.320;2022-10-16T13:53:31;5.00;;;2.60;;
27505;SDS011;14939;43.596;1.320;2022-10-16T13:55:58;7.30;;;2.30;;
27505;SDS011;14939;43.596;1.320;2022-10-16T13:58:25;11.50;;;3.00;;
27505;SDS011;14939;43.596;1.320;2022-10-16T14:01:34;12.05;;;3.00;;
27505;SDS011;14939;43.596;1.320;2022-10-16T14:03:45;6.78;;;2.97;;
27505;SDS011;14939;43.596;1.320;2022-10-16T14:06:12;6.20;;;2.33;;
27505;SDS011;14939;43.596;1.320;2022-10-16T14:08:44;6.03;;;2.53;;
27505;SDS011;14939;43.596;1.320;2022-10-16T14:11:19;5.57;;;2.80;;
27505;SDS011;14939;43.596;1.320;2022-10-16T14:13:49;12.57;;;3.17;;
27505;SDS011;14939;43.596;1.320;2022-10-16T14:16:36;8.20;;;2.95;;
27505;SDS011;14939;43.596;1.320;2022-10-16T14:19:06;7.10;;;2.78;;
27505;SDS011;14939;43.596;1.320;2022-10-16T14:21:37;9.63;;;2.65;;
27505;SDS011;14939;43.596;1.320;2022-10-16T14:24:12;19.67;;;3.05;;
27505;SDS011;14939;43.596;1.320;2022-10-16T14:26:47;26.85;;;3.60;;
27505;SDS011;14939;43.596;1.320;2022-10-16T14:29:14;9.13;;;2.90;;
27505;SDS011;14939;43.596;1.320;2022-10-16T14:31:57;11.52;;;3.20;;
27505;SDS011;14939;43.596;1.320;2022-10-16T14:34:34;12.57;;;2.40;;
27505;SDS011;14939;43.596;1.320;2022-10-16T14:37:06;24.85;;;3.35;;
27505;SDS011;14939;43.596;1.320;2022-10-16T14:39:39;9.30;;;2.83;;
27505;SDS011;14939;43.596;1.320;2022-10-16T14:42:11;17.20;;;3.20;;
27505;SDS011;14939;43.596;1.320;2022-10-16T14:44:40;11.55;;;3.13;;
27505;SDS011;14939;43.596;1.320;2022-10-16T14:47:09;8.27;;;2.42;;
27505;SDS011;14939;43.596;1.320;2022-10-16T14:49:41;7.57;;;3.05;;
27505;SDS011;14939;43.596;1.320;2022-10-16T14:52:10;11.27;;;2.90;;
27505;SDS011;14939;43.596;1.320;2022-10-16T14:54:37;14.85;;;2.95;;
27505;SDS011;14939;43.596;1.320;2022-10-16T14:57:03;9.93;;;2.78;;
27505;SDS011;14939;43.596;1.320;2022-10-16T15:01:57;11.52;;;2.88;;
27505;SDS011;14939;43.596;1.320;2022-10-16T15:04:23;7.78;;;2.88;;
27505;SDS011;14939;43.596;1.320;2022-10-16T15:06:48;9.07;;;3.03;;
27505;SDS011;14939;43.596;1.320;2022-10-16T15:09:14;10.65;;;2.83;;
27505;SDS011;14939;43.596;1.320;2022-10-16T15:11:40;7.68;;;3.05;;
27505;SDS011;14939;43.596;1.320;2022-10-16T15:14:08;7.97;;;2.53;;
27505;SDS011;14939;43.596;1.320;2022-10-16T15:16:37;9.45;;;2.90;;
27505;SDS011;14939;43.596;1.320;2022-10-16T15:19:03;17.40;;;3.55;;
27505;SDS011;14939;43.596;1.320;2022-10-16T15:21:30;7.60;;;2.80;;
27505;SDS011;14939;43.596;1.320;2022-10-16T15:23:57;9.77;;;2.92;;
27505;SDS011;14939;43.596;1.320;2022-10-16T15:26:28;6.80;;;3.15;;
27505;SDS011;14939;43.596;1.320;2022-10-16T15:28:54;13.55;;;3.20;;
27505;SDS011;14939;43.596;1.320;2022-10-16T15:31:20;8.70;;;2.83;;
27505;SDS011;14939;43.596;1.320;2022-10-16T15:33:49;11.48;;;3.15;;
27505;SDS011;14939;43.596;1.320;2022-10-16T15:36:24;9.45;;;2.92;;
27505;SDS011;14939;43.596;1.320;2022-10-16T15:38:53;11.30;;;2.83;;
27505;SDS011;14939;43.596;1.320;2022-10-16T15:41:19;11.77;;;2.90;;
27505;SDS011;14939;43.596;1.320;2022-10-16T15:43:47;11.98;;;2.95;;
27505;SDS011;14939;43.596;1.320;2022-10-16T15:46:14;7.95;;;3.05;;
27505;SDS011;14939;43.596;1.320;2022-10-16T15:48:41;13.40;;;2.97;;
27505;SDS011;14939;43.596;1.320;2022-10-16T15:51:08;7.78;;;2.80;;
27505;SDS011;14939;43.596;1.320;2022-10-16T15:53:34;9.18;;;2.58;;
27505;SDS011;14939;43.596;1.320;2022-10-16T15:56:03;7.55;;;2.80;;
27505;SDS011;14939;43.596;1.320;2022-10-16T15:58:30;10.98;;;2.70;;
27505;SDS011;14939;43.596;1.320;2022-10-16T16:00:56;10.02;;;2.70;;
27505;SDS011;14939;43.596;1.320;2022-10-16T16:03:25;6.95;;;2.60;;
27505;SDS011;14939;43.596;1.320;2022-10-16T16:05:51;8.48;;;2.63;;
27505;SDS011;14939;43.596;1.320;2022-10-16T16:08:17;10.20;;;2.90;;
27505;SDS011;14939;43.596;1.320;2022-10-16T16:10:42;7.47;;;2.80;;
27505;SDS011;14939;43.596;1.320;2022-10-16T16:13:08;10.43;;;2.72;;
27505;SDS011;14939;43.596;1.320;2022-10-16T16:15:33;10.35;;;2.80;;
27505;SDS011;14939;43.596;1.320;2022-10-16T16:17:59;9.10;;;2.90;;
27505;SDS011;14939;43.596;1.320;2022-10-16T16:20:27;10.90;;;2.80;;
27505;SDS011;14939;43.596;1.320;2022-10-16T16:22:52;12.75;;;3.08;;
27505;SDS011;14939;43.596;1.320;2022-10-16T16:25:18;11.80;;;2.97;;
27505;SDS011;14939;43.596;1.320;2022-10-16T16:27:44;8.77;;;2.90;;
27505;SDS011;14939;43.596;1.320;2022-10-16T16:30:10;6.50;;;2.85;;
27505;SDS011;14939;43.596;1.320;2022-10-16T16:32:36;10.63;;;3.25;;
27505;SDS011;14939;43.596;1.320;2022-10-16T16:35:02;7.68;;;3.10;;
27505;SDS011;14939;43.596;1.320;2022-10-16T16:37:30;9.90;;;3.05;;
27505;SDS011;14939;43.596;1.320;2022-10-16T16:39:56;8.05;;;2.97;;
27505;SDS011;14939;43.596;1.320;2022-10-16T16:42:24;10.55;;;2.90;;
27505;SDS011;14939;43.596;1.320;2022-10-16T16:44:50;10.60;;;3.28;;